Time;durP1;ratioP1;P1;durP2;ratioP2;P2;SDS_P1;SDS_P2;PMS_P1;PMS_P2;Temp;Humidity;BMP_temperature;BMP_pressure;BME280_temperature;BME280_humidity;BME280_pressure;Samples;Min_cycle;Max_cycle;Signal;HPM_P1;HPM_P2
2021/04/07 00:00:05;;;;;;;12.32;4.25;;;-1.20;99.90;;;;;;5113458;28;20023;-73
2021/04/07 00:02:30;;;;;;;5.63;3.28;;;-1.10;99.90;;;;;;5095271;28;20047;-71
2021/04/07 00:05:08;;;;;;;8.25;2.90;;;-1.10;99.90;;;;;;5113525;28;20024;-73
2021/04/07 00:07:33;;;;;;;8.25;3.50;;;-1.20;99.90;;;;;;5113405;28;20095;-73
2021/04/07 00:10:00;;;;;;;5.20;3.25;;;-1.30;99.90;;;;;;5113342;28;20047;-73
2021/04/07 00:12:26;;;;;;;7.25;3.13;;;-1.10;99.90;;;;;;5113240;28;20016;-73
2021/04/07 00:14:51;;;;;;;9.63;3.33;;;-1.20;99.90;;;;;;5113185;28;20095;-73
2021/04/07 00:17:17;;;;;;;6.60;3.00;;;-1.20;99.90;;;;;;5113077;28;20072;-72
2021/04/07 00:19:43;;;;;;;7.85;3.45;;;-1.30;99.90;;;;;;5113040;28;20067;-72
2021/04/07 00:22:09;;;;;;;9.82;3.50;;;-1.30;99.90;;;;;;5113055;28;20099;-73
2021/04/07 00:24:34;;;;;;;5.85;3.63;;;-1.30;99.90;;;;;;5113167;28;20031;-73
2021/04/07 00:27:06;;;;;;;8.27;3.95;;;-1.30;99.90;;;;;;5112075;28;20023;-73
2021/04/07 00:29:32;;;;;;;;;;;-1.30;99.90;;;;;;5113440;28;20115;-73
2021/04/07 00:31:57;;;;;;;7.07;3.58;;;-1.30;99.90;;;;;;5112961;28;20391;-73
2021/04/07 00:34:23;;;;;;;10.32;3.75;;;-1.30;99.90;;;;;;5112951;27;20050;-73
2021/04/07 00:36:49;;;;;;;7.93;3.30;;;-1.30;99.90;;;;;;5112846;28;20098;-73
2021/04/07 00:39:15;;;;;;;10.75;4.18;;;-1.30;99.90;;;;;;5112835;28;20078;-73
2021/04/07 00:41:40;;;;;;;7.35;3.45;;;-1.30;99.90;;;;;;5112829;28;20487;-73
2021/04/07 00:44:06;;;;;;;9.98;3.63;;;-1.20;99.90;;;;;;5112807;28;20047;-73
2021/04/07 00:46:36;;;;;;;11.23;3.63;;;-1.20;99.90;;;;;;5112706;28;20368;-73
2021/04/07 00:49:03;;;;;;;7.22;4.03;;;-1.30;99.90;;;;;;5112652;28;20023;-73
2021/04/07 00:51:29;;;;;;;5.28;4.13;;;-1.30;99.90;;;;;;5112600;28;20364;-73
2021/04/07 00:53:55;;;;;;;4.97;3.75;;;-1.20;99.90;;;;;;5111404;28;20403;-73
2021/04/07 00:56:21;;;;;;;12.10;4.72;;;-1.10;99.90;;;;;;5112677;28;20053;-73
2021/04/07 00:58:47;;;;;;;15.77;6.13;;;-1.10;99.90;;;;;;5112481;28;20042;-73
2021/04/07 01:01:13;;;;;;;8.27;4.13;;;-0.90;99.90;;;;;;5112535;28;20012;-73
2021/04/07 01:03:39;;;;;;;5.05;3.63;;;-0.90;99.90;;;;;;5112576;28;20030;-73
2021/04/07 01:06:05;;;;;;;13.65;5.07;;;-1.00;99.90;;;;;;5112447;28;20136;-73
2021/04/07 01:08:31;;;;;;;11.63;4.32;;;-1.00;99.90;;;;;;5112387;28;20081;-73
2021/04/07 01:10:56;;;;;;;11.35;4.97;;;-1.00;99.90;;;;;;5112477;28;20097;-73
2021/04/07 01:13:22;;;;;;;8.73;5.57;;;-1.10;99.90;;;;;;5112525;28;20031;-73
2021/04/07 01:15:48;;;;;;;10.93;5.25;;;-1.00;99.90;;;;;;5112456;28;20084;-73
2021/04/07 01:18:14;;;;;;;7.45;4.72;;;-1.00;99.90;;;;;;5112269;28;20136;-73
2021/04/07 01:20:40;;;;;;;9.60;5.75;;;-0.80;99.90;;;;;;5111512;28;20476;-73
2021/04/07 01:23:07;;;;;;;10.38;5.47;;;-0.80;99.90;;;;;;5112349;28;20023;-73
2021/04/07 01:25:33;;;;;;;11.98;5.43;;;-0.60;99.90;;;;;;5112323;28;20024;-73
2021/04/07 01:28:00;;;;;;;9.15;5.22;;;-0.60;99.90;;;;;;5112282;28;20034;-73
2021/04/07 01:30:27;;;;;;;9.73;5.65;;;-0.50;99.90;;;;;;5112327;28;20024;-73
2021/04/07 01:32:53;;;;;;;13.75;7.03;;;-0.40;99.90;;;;;;5112377;28;20103;-73
2021/04/07 01:35:19;;;;;;;15.32;4.97;;;-0.50;99.90;;;;;;5112205;28;20105;-73
2021/04/07 01:37:45;;;;;;;8.63;5.95;;;-0.60;99.90;;;;;;5112101;28;20015;-73
2021/04/07 01:40:14;;;;;;;9.88;5.97;;;-0.80;99.90;;;;;;5112083;28;20047;-73
2021/04/07 01:42:45;;;;;;;8.68;5.55;;;-1.00;99.90;;;;;;5112132;28;20110;-73
2021/04/07 01:45:12;;;;;;;12.63;5.75;;;-1.10;99.90;;;;;;5112238;28;20052;-73
2021/04/07 01:47:38;;;;;;;11.60;5.85;;;-1.20;99.90;;;;;;5110943;28;20028;-73
2021/04/07 01:50:06;;;;;;;8.63;5.93;;;-1.20;99.90;;;;;;5113205;28;20067;-73
2021/04/07 01:52:32;;;;;;;10.80;5.35;;;-1.20;99.90;;;;;;5114613;28;20436;-73
2021/04/07 01:54:58;;;;;;;10.30;5.70;;;-1.40;99.90;;;;;;5116053;28;20020;-73
2021/04/07 01:57:23;;;;;;;11.30;5.85;;;-1.50;99.90;;;;;;5115872;27;20450;-73
2021/04/07 01:59:49;;;;;;;7.45;5.22;;;-1.40;99.90;;;;;;5115726;28;20047;-72
2021/04/07 02:02:15;;;;;;;9.57;6.05;;;-1.50;99.90;;;;;;5115823;28;20041;-72
2021/04/07 02:04:42;;;;;;;11.05;6.18;;;-1.50;99.90;;;;;;5115741;28;20418;-72
2021/04/07 02:07:14;;;;;;;7.80;5.55;;;-1.50;99.90;;;;;;5115758;28;20024;-73
2021/04/07 02:09:40;;;;;;;14.43;5.93;;;-1.50;99.90;;;;;;5115746;28;20406;-73
2021/04/07 02:12:07;;;;;;;8.48;5.50;;;-1.50;99.90;;;;;;5114349;28;20111;-73
2021/04/07 02:14:33;;;;;;;10.57;6.22;;;-1.50;99.90;;;;;;5115688;28;20023;-73
2021/04/07 02:17:01;;;;;;;8.93;5.82;;;-1.40;99.90;;;;;;5115613;28;20171;-73
2021/04/07 02:19:30;;;;;;;12.07;6.13;;;-1.40;99.90;;;;;;5115423;28;20023;-73
2021/04/07 02:22:00;;;;;;;9.80;5.93;;;-1.40;99.90;;;;;;5114173;28;20080;-73
2021/04/07 02:24:26;;;;;;;7.10;5.80;;;-1.40;99.90;;;;;;5115528;28;20383;-73
2021/04/07 02:26:52;;;;;;;9.80;5.80;;;-1.50;99.90;;;;;;5115332;28;20095;-73
2021/04/07 02:29:18;;;;;;;10.55;5.63;;;-1.40;99.90;;;;;;5115269;28;20483;-72
2021/04/07 02:31:43;;;;;;;10.07;5.22;;;-1.30;99.90;;;;;;5115371;28;20414;-73
2021/04/07 02:34:11;;;;;;;6.78;5.13;;;-1.40;99.90;;;;;;5115211;28;20024;-73
2021/04/07 02:36:36;;;;;;;7.25;4.68;;;-1.40;99.90;;;;;;5115147;28;20039;-73
2021/04/07 02:39:03;;;;;;;11.35;5.38;;;-1.30;99.90;;;;;;5115089;28;20050;-73
2021/04/07 02:41:29;;;;;;;9.45;5.07;;;-1.40;99.90;;;;;;5115216;28;20365;-73
2021/04/07 02:43:55;;;;;;;6.25;4.72;;;-1.40;99.90;;;;;;5115059;28;20073;-73
2021/04/07 02:46:21;;;;;;;9.43;4.90;;;-1.40;99.90;;;;;;5115023;27;20051;-73
2021/04/07 02:48:46;;;;;;;8.50;5.43;;;-1.30;99.90;;;;;;5114881;28;20024;-73
2021/04/07 02:51:12;;;;;;;8.55;6.00;;;-1.40;99.90;;;;;;5114945;27;20492;-73
2021/04/07 02:53:38;;;;;;;8.77;5.00;;;-1.40;99.90;;;;;;5114708;28;20118;-72
2021/04/07 02:56:04;;;;;;;12.57;5.32;;;-1.30;99.90;;;;;;5114827;28;20038;-73
2021/04/07 02:58:29;;;;;;;9.00;5.25;;;-1.20;99.90;;;;;;5114621;28;20497;-73
2021/04/07 03:00:55;;;;;;;10.95;5.38;;;-1.30;99.90;;;;;;5113470;28;20016;-73
2021/04/07 03:03:21;;;;;;;8.77;5.20;;;-1.10;99.90;;;;;;5114574;28;20024;-71
2021/04/07 03:05:46;;;;;;;6.78;5.47;;;-1.20;99.90;;;;;;5114628;27;20372;-73
2021/04/07 03:08:13;;;;;;;8.07;5.32;;;-1.00;99.90;;;;;;5114577;28;20026;-73
2021/04/07 03:10:39;;;;;;;6.50;4.85;;;-0.80;99.90;;;;;;5114605;28;20106;-72
2021/04/07 03:13:05;;;;;;;8.02;5.05;;;-0.80;99.90;;;;;;5114538;27;20055;-73
2021/04/07 03:15:30;;;;;;;12.77;5.78;;;-1.00;99.90;;;;;;5114482;28;20032;-73
2021/04/07 03:17:56;;;;;;;8.18;5.75;;;-1.10;99.90;;;;;;5114216;28;20027;-73
2021/04/07 03:20:22;;;;;;;8.55;5.43;;;-1.20;99.90;;;;;;5114329;28;20022;-73
2021/04/07 03:22:47;;;;;;;9.10;5.68;;;-1.30;99.90;;;;;;5114266;28;20020;-73
2021/04/07 03:25:13;;;;;;;8.40;4.97;;;-1.40;99.90;;;;;;5114259;28;20023;-72
2021/04/07 03:27:39;;;;;;;11.05;5.63;;;-1.40;99.90;;;;;;5114223;28;20035;-73
2021/04/07 03:30:06;;;;;;;11.13;5.78;;;-1.30;99.90;;;;;;5114137;28;20020;-73
2021/04/07 03:32:32;;;;;;;11.07;6.10;;;-1.20;99.90;;;;;;5114022;28;20399;-73
2021/04/07 03:34:58;;;;;;;11.15;6.43;;;-1.20;99.90;;;;;;5114032;28;20012;-73
2021/04/07 03:37:24;;;;;;;10.27;5.57;;;-1.10;99.90;;;;;;5113991;28;20032;-72
2021/04/07 03:39:51;;;;;;;8.48;6.03;;;-1.10;99.90;;;;;;5113804;28;20028;-72
2021/04/07 03:42:16;;;;;;;9.13;5.43;;;-1.20;99.90;;;;;;5113910;28;20023;-73
2021/04/07 03:44:42;;;;;;;10.90;5.80;;;-1.20;99.90;;;;;;5113849;28;20016;-73
2021/04/07 03:47:08;;;;;;;8.68;5.30;;;-1.20;99.90;;;;;;5113666;28;20510;-73
2021/04/07 03:49:34;;;;;;;8.98;5.10;;;-1.20;99.90;;;;;;5113745;28;20506;-73
2021/04/07 03:51:59;;;;;;;10.68;5.53;;;-1.30;99.90;;;;;;5113684;28;20400;-73
2021/04/07 03:54:26;;;;;;;7.82;5.55;;;-1.20;99.90;;;;;;5112262;28;20203;-73
2021/04/07 03:56:52;;;;;;;9.57;5.43;;;-1.20;99.90;;;;;;5113635;28;20428;-73
2021/04/07 03:59:18;;;;;;;10.80;5.88;;;-1.10;99.90;;;;;;5112419;28;20027;-73
2021/04/07 04:01:43;;;;;;;8.90;5.97;;;-1.20;99.90;;;;;;5113586;27;20024;-73
2021/04/07 04:04:10;;;;;;;9.40;6.03;;;-1.20;99.90;;;;;;5112290;28;20016;-73
2021/04/07 04:06:36;;;;;;;11.60;6.68;;;-1.10;99.90;;;;;;5113420;28;20042;-73
2021/04/07 04:09:03;;;;;;;8.82;5.93;;;-1.10;99.90;;;;;;5113340;28;20024;-73
2021/04/07 04:11:29;;;;;;;8.80;5.55;;;-0.90;99.90;;;;;;5113070;28;20054;-73
2021/04/07 04:13:55;;;;;;;11.25;5.03;;;-0.90;99.90;;;;;;5113126;28;20059;-73
2021/04/07 04:16:21;;;;;;;8.27;5.32;;;-1.00;99.90;;;;;;5113201;28;20027;-73
2021/04/07 04:18:49;;;;;;;12.15;6.88;;;-1.10;99.90;;;;;;5113135;28;20024;-73
2021/04/07 04:21:15;;;;;;;11.32;6.55;;;-1.10;99.90;;;;;;5113172;28;20023;-73
2021/04/07 04:23:41;;;;;;;9.82;6.20;;;-1.10;99.90;;;;;;5113115;28;20075;-73
2021/04/07 04:26:06;;;;;;;11.25;6.03;;;-1.00;99.90;;;;;;5113050;28;20034;-73
2021/04/07 04:28:32;;;;;;;10.45;5.95;;;-1.00;99.90;;;;;;5113011;28;20032;-73
2021/04/07 04:30:58;;;;;;;10.13;5.78;;;-1.00;99.90;;;;;;5112898;28;20020;-73
2021/04/07 04:33:24;;;;;;;14.25;6.25;;;-1.10;99.90;;;;;;5112999;28;20094;-73
2021/04/07 04:35:49;;;;;;;10.52;5.68;;;-1.00;99.90;;;;;;5112903;28;20038;-73
2021/04/07 04:38:16;;;;;;;16.77;6.13;;;-1.00;99.90;;;;;;5112713;28;20035;-73
2021/04/07 04:40:42;;;;;;;9.57;5.90;;;-0.80;99.90;;;;;;5112835;27;20042;-73
2021/04/07 04:43:08;;;;;;;13.40;6.30;;;-0.80;99.90;;;;;;5112796;28;20020;-73
2021/04/07 04:45:35;;;;;;;8.73;6.60;;;-0.60;99.90;;;;;;5112757;28;20030;-73
2021/04/07 04:48:02;;;;;;;7.32;5.65;;;-0.60;99.90;;;;;;5112714;28;20030;-73
2021/04/07 04:50:28;;;;;;;12.63;5.80;;;-0.60;99.90;;;;;;5112751;28;20024;-73
2021/04/07 04:52:53;;;;;;;21.98;6.13;;;-0.40;99.90;;;;;;5112616;28;20043;-73
2021/04/07 04:55:19;;;;;;;10.50;6.22;;;-0.40;99.90;;;;;;5112660;28;20483;-73
2021/04/07 04:57:45;;;;;;;10.13;5.85;;;-0.40;99.90;;;;;;5112480;28;20024;-73
2021/04/07 05:00:11;;;;;;;15.45;6.05;;;-0.30;99.90;;;;;;5112539;28;20031;-73
2021/04/07 05:02:37;;;;;;;9.18;5.35;;;-0.20;99.90;;;;;;5112586;28;20020;-73
2021/04/07 05:05:04;;;;;;;10.82;5.85;;;-0.20;99.90;;;;;;5112471;28;20368;-73
2021/04/07 05:07:30;;;;;;;11.32;5.70;;;-0.20;99.90;;;;;;5112531;28;20019;-73
2021/04/07 05:09:56;;;;;;;20.50;6.55;;;-0.10;99.90;;;;;;5112336;28;20395;-73
2021/04/07 05:12:21;;;;;;;9.95;6.28;;;-0.10;99.90;;;;;;5111218;28;20035;-74
2021/04/07 05:14:50;;;;;;;20.40;6.30;;;0.00;99.90;;;;;;5112393;28;20420;-73
2021/04/07 05:17:16;;;;;;;9.23;6.38;;;0.20;99.90;;;;;;5112391;28;20060;-73
2021/04/07 05:19:42;;;;;;;12.50;5.85;;;0.10;99.90;;;;;;5112280;28;20103;-73
2021/04/07 05:22:08;;;;;;;9.80;5.40;;;0.00;99.90;;;;;;5112211;28;21000;-73
2021/04/07 05:24:34;;;;;;;13.23;6.60;;;-0.10;99.90;;;;;;5112821;28;20099;-73
2021/04/07 05:27:01;;;;;;;14.27;5.53;;;-0.20;99.90;;;;;;5116564;28;20062;-73
2021/04/07 05:29:26;;;;;;;12.90;6.57;;;0.00;99.90;;;;;;5116454;28;20057;-74
2021/04/07 05:31:52;;;;;;;10.65;5.55;;;0.20;99.90;;;;;;5116395;28;20084;-76
2021/04/07 05:34:18;;;;;;;16.55;5.50;;;0.20;99.90;;;;;;5116436;28;20328;-74
2021/04/07 05:36:44;;;;;;;9.27;5.22;;;0.20;99.90;;;;;;5116319;28;20103;-74
2021/04/07 05:39:10;;;;;;;11.60;5.90;;;0.10;99.90;;;;;;5116265;28;20028;-74
2021/04/07 05:41:36;;;;;;;16.75;5.95;;;0.10;99.90;;;;;;5116299;28;20026;-74
2021/04/07 05:44:02;;;;;;;7.43;5.50;;;0.10;99.90;;;;;;5116086;28;20034;-74
2021/04/07 05:46:28;;;;;;;11.85;5.30;;;0.10;99.90;;;;;;5116166;28;20042;-75
2021/04/07 05:48:54;;;;;;;14.82;5.47;;;0.20;99.90;;;;;;5116114;28;20035;-74
2021/04/07 05:51:20;;;;;;;12.27;5.60;;;0.20;99.90;;;;;;5116024;28;20028;-74
2021/04/07 05:53:45;;;;;;;17.33;5.97;;;0.10;99.90;;;;;;5116018;28;20479;-73
2021/04/07 05:56:11;;;;;;;25.30;6.95;;;0.20;99.90;;;;;;5115646;28;20032;-73
2021/04/07 05:58:37;;;;;;;12.20;6.70;;;0.40;99.90;;;;;;5115818;28;20016;-73
2021/04/07 06:01:03;;;;;;;16.98;7.75;;;0.30;99.90;;;;;;5115871;28;20087;-73
2021/04/07 06:03:28;;;;;;;11.27;7.30;;;0.20;99.90;;;;;;5114685;28;20046;-73
2021/04/07 06:05:54;;;;;;;11.10;6.32;;;0.20;99.90;;;;;;5115812;28;20020;-72
2021/04/07 06:08:20;;;;;;;11.05;6.35;;;0.00;99.90;;;;;;5115579;28;20050;-72
2021/04/07 06:10:47;;;;;;;17.60;6.50;;;-0.40;99.90;;;;;;5115691;28;20035;-73
2021/04/07 06:13:15;;;;;;;14.13;6.40;;;-0.40;99.90;;;;;;5115490;28;20046;-73
2021/04/07 06:15:42;;;;;;;19.92;7.50;;;-0.30;99.90;;;;;;5115496;28;20031;-73
2021/04/07 06:18:10;;;;;;;25.15;7.78;;;-0.30;99.90;;;;;;5115313;28;20058;-73
2021/04/07 06:20:39;;;;;;;15.63;7.93;;;-0.30;99.90;;;;;;5114221;28;20046;-72
2021/04/07 06:23:05;;;;;;;15.77;8.07;;;-0.30;99.90;;;;;;5115501;28;20103;-73
2021/04/07 06:25:32;;;;;;;11.10;7.20;;;-0.30;99.90;;;;;;5125833;27;20372;-73
2021/04/07 06:28:00;;;;;;;16.70;8.50;;;-0.40;99.90;;;;;;5135323;27;20027;-72
2021/04/07 06:30:45;;;;;;;17.40;8.27;;;-0.30;99.90;;;;;;5135287;27;20571;-73
2021/04/07 06:33:22;;;;;;;10.98;6.47;;;-0.30;99.90;;;;;;5135277;27;20035;-73
2021/04/07 06:35:51;;;;;;;10.75;7.63;;;-0.30;99.90;;;;;;5135055;27;20497;-73
2021/04/07 06:38:17;;;;;;;9.00;7.10;;;-0.20;99.90;;;;;;5134809;27;20019;-72
2021/04/07 06:40:43;;;;;;;13.20;8.05;;;0.00;99.90;;;;;;5135638;27;20051;-72
2021/04/07 06:43:10;;;;;;;10.55;6.80;;;0.10;99.90;;;;;;5135386;27;20015;-73
2021/04/07 06:45:38;;;;;;;8.75;6.45;;;0.20;99.90;;;;;;5125015;27;20123;-73
2021/04/07 06:48:09;;;;;;;8.80;6.72;;;0.20;99.90;;;;;;5120509;27;20382;-73
2021/04/07 06:50:37;;;;;;;14.45;6.38;;;0.40;99.90;;;;;;5135075;27;20240;-73
2021/04/07 06:53:05;;;;;;;13.93;7.18;;;0.40;99.90;;;;;;5134834;27;20027;-73
2021/04/07 06:55:33;;;;;;;7.30;5.43;;;0.10;99.90;;;;;;5134966;27;20031;-72
2021/04/07 06:58:01;;;;;;;12.00;6.68;;;-0.20;99.90;;;;;;5134680;27;20027;-73
2021/04/07 07:00:28;;;;;;;11.57;6.78;;;0.10;99.90;;;;;;5133168;27;20019;-72
2021/04/07 07:03:10;;;;;;;9.32;5.20;;;0.20;99.90;;;;;;5125893;27;20383;-72
2021/04/07 07:05:45;;;;;;;12.88;5.85;;;0.20;99.90;;;;;;5134414;27;20023;-73
2021/04/07 07:08:17;;;;;;;18.90;6.82;;;0.30;99.90;;;;;;5133406;27;20407;-72
2021/04/07 07:10:44;;;;;;;8.48;4.72;;;0.20;99.90;;;;;;5134519;27;20516;-73
2021/04/07 07:13:15;;;;;;;6.80;5.05;;;0.50;99.90;;;;;;5133176;27;20027;-73
2021/04/07 07:15:40;;;;;;;11.73;5.72;;;0.60;99.90;;;;;;5134384;27;20102;-73
2021/04/07 07:18:07;;;;;;;18.70;5.85;;;0.70;99.90;;;;;;5134538;27;20561;-73
2021/04/07 07:20:35;;;;;;;8.85;4.75;;;0.70;99.90;;;;;;5134579;27;20383;-73
2021/04/07 07:23:02;;;;;;;7.65;4.75;;;0.60;99.90;;;;;;5134368;27;20023;-73
2021/04/07 07:25:29;;;;;;;13.88;7.57;;;0.50;99.90;;;;;;5134246;27;20114;-73
2021/04/07 07:28:04;;;;;;;8.90;5.15;;;0.50;99.90;;;;;;5134302;27;20011;-73
2021/04/07 07:30:42;;;;;;;8.32;5.88;;;0.50;99.90;;;;;;5107224;27;20424;-72
2021/04/07 07:33:14;;;;;;;13.02;5.72;;;0.50;99.90;;;;;;5115682;27;20701;-73
2021/04/07 07:35:40;;;;;;;17.00;5.55;;;0.20;99.90;;;;;;5134254;27;20023;-73
2021/04/07 07:38:06;;;;;;;6.72;5.75;;;0.20;99.90;;;;;;5133706;27;20370;-72
2021/04/07 07:40:32;;;;;;;19.35;6.22;;;0.20;99.90;;;;;;5134001;27;20023;-73
2021/04/07 07:42:58;;;;;;;11.10;6.70;;;0.30;99.90;;;;;;5133937;27;20390;-72
2021/04/07 07:45:36;;;;;;;7.43;5.32;;;0.50;99.90;;;;;;5134224;27;20050;-73
2021/04/07 07:48:10;;;;;;;8.82;5.78;;;0.60;99.90;;;;;;5133153;27;20063;-73
2021/04/07 07:50:39;;;;;;;16.80;5.93;;;0.50;99.90;;;;;;5133591;27;20026;-73
2021/04/07 07:53:16;;;;;;;16.42;6.20;;;0.50;99.90;;;;;;5133392;27;20023;-73
2021/04/07 07:55:44;;;;;;;9.93;6.20;;;0.60;99.90;;;;;;5133334;27;20027;-72
2021/04/07 07:58:10;;;;;;;10.13;5.93;;;0.70;99.90;;;;;;5133371;27;20118;-73
2021/04/07 08:00:36;;;;;;;12.25;5.72;;;0.70;99.90;;;;;;5133228;27;20102;-73
2021/04/07 08:03:07;;;;;;;14.18;5.90;;;0.80;99.90;;;;;;5132513;27;20026;-73
2021/04/07 08:05:34;;;;;;;10.85;5.45;;;1.00;99.90;;;;;;5133434;27;20022;-73
2021/04/07 08:08:02;;;;;;;11.52;6.15;;;1.00;99.80;;;;;;5133113;27;20027;-74
2021/04/07 08:10:29;;;;;;;10.75;5.57;;;0.90;99.90;;;;;;5133470;27;20024;-73
2021/04/07 08:12:56;;;;;;;9.80;6.05;;;0.60;99.90;;;;;;5133061;27;20103;-73
2021/04/07 08:15:22;;;;;;;11.07;5.20;;;1.00;99.90;;;;;;5133068;27;20015;-73
2021/04/07 08:17:48;;;;;;;12.75;5.45;;;1.10;99.90;;;;;;5131778;27;20027;-73
2021/04/07 08:20:14;;;;;;;14.93;6.05;;;1.20;99.70;;;;;;5133169;27;20084;-74
2021/04/07 08:22:40;;;;;;;8.55;5.32;;;1.60;99.90;;;;;;5133192;27;20421;-73
2021/04/07 08:25:07;;;;;;;11.77;5.70;;;1.60;94.60;;;;;;5132780;27;20019;-74
2021/04/07 08:27:35;;;;;;;8.95;6.03;;;1.70;98.10;;;;;;5132909;27;20419;-74
2021/04/07 08:30:05;;;;;;;12.90;6.32;;;2.30;99.00;;;;;;5132760;27;20084;-74
2021/04/07 08:32:31;;;;;;;12.68;6.57;;;2.20;94.20;;;;;;5133057;27;20038;-74
2021/04/07 08:34:58;;;;;;;13.07;6.30;;;2.10;93.00;;;;;;5132707;27;20106;-73
2021/04/07 08:37:27;;;;;;;10.00;6.63;;;2.20;93.00;;;;;;5133061;27;20034;-74
2021/04/07 08:39:54;;;;;;;13.02;6.15;;;2.20;94.40;;;;;;5132839;27;20443;-73
2021/04/07 08:42:20;;;;;;;12.10;6.55;;;2.00;93.60;;;;;;5132715;27;20102;-74
2021/04/07 08:44:47;;;;;;;9.82;4.90;;;1.80;93.50;;;;;;5133032;27;20072;-74
2021/04/07 08:47:31;;;;;;;6.43;4.97;;;1.70;92.10;;;;;;5132622;27;20019;-73
2021/04/07 08:50:05;;;;;;;12.88;5.85;;;1.60;92.40;;;;;;5132852;27;20027;-74
2021/04/07 08:52:31;;;;;;;8.35;5.57;;;1.50;92.30;;;;;;5132265;27;20031;-74
2021/04/07 08:55:00;;;;;;;6.53;3.83;;;1.80;93.10;;;;;;5132439;27;20027;-74
2021/04/07 08:57:27;;;;;;;11.65;5.82;;;1.70;91.00;;;;;;5132643;27;20038;-74
2021/04/07 08:59:54;;;;;;;6.30;4.03;;;1.60;93.30;;;;;;5131707;27;20072;-74
2021/04/07 09:02:20;;;;;;;12.23;4.95;;;0.70;99.90;;;;;;5132704;27;20491;-74
2021/04/07 09:05:06;;;;;;;25.15;5.07;;;0.10;99.90;;;;;;5132238;27;20015;-73
2021/04/07 09:07:46;;;;;;;20.27;5.05;;;-0.10;99.90;;;;;;5131100;27;20426;-73
2021/04/07 09:10:18;;;;;;;12.20;6.07;;;0.00;99.90;;;;;;5132358;27;20019;-73
2021/04/07 09:12:46;;;;;;;12.30;5.13;;;0.10;99.90;;;;;;5132802;27;20019;-73
2021/04/07 09:15:19;;;;;;;10.52;4.63;;;0.60;99.90;;;;;;5132244;27;20031;-73
2021/04/07 09:17:56;;;;;;;12.48;4.95;;;1.40;99.60;;;;;;5132815;27;20035;-73
2021/04/07 09:20:42;;;;;;;9.50;5.57;;;1.40;95.70;;;;;;5132183;27;20016;-72
2021/04/07 09:23:15;;;;;;;7.97;5.53;;;1.70;97.20;;;;;;5132206;27;20019;-73
2021/04/07 09:25:50;;;;;;;6.60;4.95;;;1.70;97.90;;;;;;5132122;27;20084;-73
2021/04/07 09:28:17;;;;;;;5.50;3.70;;;1.70;99.00;;;;;;5132143;27;20214;-73
2021/04/07 09:30:46;;;;;;;12.45;4.10;;;1.90;99.60;;;;;;5130975;28;20482;-73
2021/04/07 09:33:15;;;;;;;11.07;4.10;;;2.60;93.70;;;;;;5132115;27;20031;-73
2021/04/07 09:35:59;;;;;;;10.10;3.67;;;3.20;93.50;;;;;;5132501;28;20080;-74
2021/04/07 09:38:30;;;;;;;4.70;3.20;;;3.70;88.70;;;;;;5125401;28;20406;-73
2021/04/07 09:41:14;;;;;;;8.88;4.00;;;3.60;86.30;;;;;;5132108;27;20106;-74
2021/04/07 09:43:41;;;;;;;6.78;4.53;;;3.00;82.20;;;;;;5131703;27;20023;-74
2021/04/07 09:46:07;;;;;;;7.80;3.97;;;3.40;89.20;;;;;;5132149;27;20094;-74
2021/04/07 09:48:40;;;;;;;6.25;4.40;;;3.90;86.40;;;;;;5131818;27;20066;-73
2021/04/07 09:51:34;;;;;;;10.40;4.78;;;4.60;90.40;;;;;;5132176;27;20424;-74
2021/04/07 09:54:19;;;;;;;8.05;4.93;;;4.90;85.50;;;;;;5126663;27;20042;-75
2021/04/07 09:56:54;;;;;;;9.00;3.42;;;5.00;83.50;;;;;;5125069;28;20053;-73
2021/04/07 09:59:32;;;;;;;6.10;3.63;;;5.00;80.70;;;;;;5130921;27;20118;-75
2021/04/07 10:01:58;;;;;;;5.72;3.88;;;4.70;83.40;;;;;;5130462;28;20115;-75
2021/04/07 10:04:31;;;;;;;4.28;3.33;;;3.50;80.70;;;;;;5132050;27;20043;-75
2021/04/07 10:07:26;;;;;;;17.83;4.63;;;2.70;84.80;;;;;;5131805;28;20551;-74
2021/04/07 10:09:53;;;;;;;16.05;7.55;;;2.60;91.80;;;;;;5132339;27;20072;-74
2021/04/07 10:12:21;;;;;;;12.57;6.00;;;2.30;93.10;;;;;;5135246;27;20027;-74
2021/04/07 10:14:49;;;;;;;9.13;5.13;;;1.70;94.40;;;;;;5135664;27;20023;-73
2021/04/07 10:17:18;;;;;;;11.48;4.90;;;1.60;99.40;;;;;;5135383;27;20478;-74
2021/04/07 10:19:45;;;;;;;14.40;5.32;;;1.50;99.90;;;;;;5135242;27;20023;-74
2021/04/07 10:22:18;;;;;;;10.48;5.15;;;1.50;99.90;;;;;;5135142;27;20454;-74
2021/04/07 10:24:46;;;;;;;6.10;4.53;;;1.60;99.90;;;;;;5135552;27;20047;-74
2021/04/07 10:27:19;;;;;;;10.57;5.30;;;1.40;99.90;;;;;;5135118;27;20090;-74
2021/04/07 10:29:45;;;;;;;9.57;5.15;;;1.90;99.90;;;;;;5095795;27;20030;-74
2021/04/07 10:32:17;;;;;;;11.20;5.32;;;2.60;99.90;;;;;;5133856;27;20059;-73
2021/04/07 10:34:42;;;;;;;7.22;4.28;;;3.20;99.90;;;;;;5134837;27;20050;-72
2021/04/07 10:37:11;;;;;;;6.07;3.05;;;4.00;96.90;;;;;;5135352;27;20059;-74
2021/04/07 10:39:38;;;;;;;5.28;3.45;;;3.50;92.00;;;;;;5133691;27;20031;-74
2021/04/07 10:42:07;;;;;;;4.75;3.03;;;3.50;93.10;;;;;;5135242;27;20094;-74
2021/04/07 10:44:35;;;;;;;5.30;3.25;;;3.70;90.40;;;;;;5134881;27;20030;-74
2021/04/07 10:47:02;;;;;;;5.75;3.78;;;4.20;91.10;;;;;;5133727;27;20434;-74
2021/04/07 10:49:28;;;;;;;6.53;3.45;;;4.40;91.80;;;;;;5133648;27;20114;-74
2021/04/07 10:52:03;;;;;;;7.10;3.50;;;5.50;92.00;;;;;;5135187;27;20059;-73
2021/04/07 10:54:31;;;;;;;4.45;3.25;;;6.50;84.20;;;;;;5134727;27;20039;-72
2021/04/07 10:57:06;;;;;;;6.85;3.50;;;6.30;78.00;;;;;;5134232;27;20023;-73
2021/04/07 10:59:34;;;;;;;8.68;3.58;;;5.70;76.20;;;;;;5125336;27;20493;-75
2021/04/07 11:02:13;;;;;;;5.78;3.42;;;3.90;80.50;;;;;;5134640;27;20084;-75
2021/04/07 11:04:38;;;;;;;6.88;3.67;;;3.30;85.10;;;;;;5134688;27;20026;-74
2021/04/07 11:07:06;;;;;;;6.38;2.88;;;2.70;82.40;;;;;;5134506;27;20023;-74
2021/04/07 11:09:34;;;;;;;9.65;3.20;;;2.70;84.50;;;;;;5134644;27;20076;-75
2021/04/07 11:12:04;;;;;;;6.35;2.90;;;3.00;89.00;;;;;;5134563;27;20102;-74
2021/04/07 11:14:30;;;;;;;10.75;4.10;;;3.10;84.70;;;;;;5134201;27;20027;-74
2021/04/07 11:16:59;;;;;;;7.40;3.65;;;3.50;87.40;;;;;;5134494;27;20028;-75
2021/04/07 11:19:35;;;;;;;5.18;3.38;;;3.80;86.70;;;;;;5124964;27;20118;-75
2021/04/07 11:22:02;;;;;;;8.48;3.10;;;3.40;86.30;;;;;;5133499;27;20027;-74
2021/04/07 11:24:28;;;;;;;12.82;4.30;;;2.90;85.40;;;;;;5134210;27;20475;-74
2021/04/07 11:26:54;;;;;;;10.93;3.72;;;1.60;90.90;;;;;;5133957;27;20023;-74
2021/04/07 11:29:20;;;;;;;10.40;4.03;;;1.20;93.60;;;;;;5133711;27;20027;-74
2021/04/07 11:31:50;;;;;;;7.07;3.60;;;1.60;97.00;;;;;;5134413;27;20102;-75
2021/04/07 11:34:18;;;;;;;6.82;3.78;;;2.50;94.70;;;;;;5132959;27;20030;-75
2021/04/07 11:40:00;;;;;;;39.28;5.80;;;4.70;94.50;;;;;;5134171;27;20023;-74
2021/04/07 11:44:30;;;;;;;11.82;3.60;;;4.70;83.80;;;;;;5134072;27;20068;-74
2021/04/07 11:47:04;;;;;;;11.20;3.63;;;4.10;85.60;;;;;;5125610;27;20064;-74
2021/04/07 11:49:35;;;;;;;13.75;3.13;;;4.20;87.50;;;;;;5133750;27;20443;-74
2021/04/07 11:52:05;;;;;;;54.63;5.78;;;4.90;84.70;;;;;;5133636;27;20428;-75
2021/04/07 11:54:30;;;;;;;12.70;4.60;;;5.10;79.90;;;;;;5133945;27;20411;-74
2021/04/07 11:56:56;;;;;;;15.20;3.08;;;5.90;85.90;;;;;;5134042;27;20088;-74
2021/04/07 11:59:25;;;;;;;5.10;2.58;;;6.20;83.80;;;;;;5120939;27;20065;-74
2021/04/07 12:01:59;;;;;;;7.85;3.10;;;6.70;73.00;;;;;;5132971;27;20019;-74
2021/04/07 12:04:26;;;;;;;9.32;2.90;;;6.30;67.40;;;;;;5116853;27;20020;-75
2021/04/07 12:06:52;;;;;;;6.53;2.45;;;5.80;74.30;;;;;;5132625;27;20523;-75
2021/04/07 12:09:18;;;;;;;8.07;3.53;;;5.00;68.90;;;;;;5131934;27;20126;-75
2021/04/07 12:11:44;;;;;;;9.27;2.92;;;4.60;76.20;;;;;;5130912;27;20390;-75
2021/04/07 12:14:09;;;;;;;6.90;2.90;;;4.10;74.10;;;;;;5132291;27;20123;-75
2021/04/07 12:16:37;;;;;;;27.35;8.80;;;2.50;83.60;;;;;;5131560;27;20038;-74
2021/04/07 12:19:04;;;;;;;10.75;3.40;;;2.30;91.50;;;;;;5131780;27;20030;-75
2021/04/07 12:21:30;;;;;;;9.57;3.10;;;3.00;96.60;;;;;;5131568;27;20016;-75
2021/04/07 12:23:56;;;;;;;13.75;3.28;;;3.80;98.00;;;;;;5132231;27;20031;-74
2021/04/07 12:26:22;;;;;;;8.25;3.15;;;4.50;92.70;;;;;;5131426;27;20030;-75
2021/04/07 12:28:48;;;;;;;5.97;3.17;;;4.30;83.30;;;;;;5131690;27;20390;-77
2021/04/07 12:31:18;;;;;;;16.65;2.90;;;4.10;88.00;;;;;;5131984;27;20023;-75
2021/04/07 12:33:57;;;;;;;5.88;2.70;;;3.70;80.80;;;;;;5130693;27;20019;-74
2021/04/07 12:36:27;;;;;;;11.02;2.85;;;3.20;84.20;;;;;;5131846;27;20033;-75
2021/04/07 12:38:55;;;;;;;13.45;4.07;;;3.30;85.70;;;;;;5130066;27;20128;-75
2021/04/07 12:41:26;;;;;;;15.82;3.22;;;3.30;83.60;;;;;;5113152;27;20023;-75
2021/04/07 12:43:52;;;;;;;44.35;4.88;;;2.60;84.00;;;;;;5130145;27;20030;-74
2021/04/07 12:46:18;;;;;;;38.10;5.28;;;2.20;84.00;;;;;;5131956;27;20510;-75
2021/04/07 12:48:47;;;;;;;8.00;3.22;;;2.20;90.20;;;;;;5130884;27;20539;-75
2021/04/07 12:51:13;;;;;;;9.15;3.58;;;2.00;90.20;;;;;;5130609;27;20035;-75
2021/04/07 12:53:39;;;;;;;6.20;3.00;;;2.40;93.80;;;;;;5131471;27;20087;-75
2021/04/07 12:56:05;;;;;;;7.22;3.83;;;2.30;93.30;;;;;;5131046;27;20019;-75